sensor_id;sensor_type;location;lat;lon;timestamp;P1;durP1;ratioP1;P2;durP2;ratioP2
19848;SDS011;10085;51.120;6.956;2023-12-07T00:04:17;95.57;;;28.30;;
19848;SDS011;10085;51.120;6.956;2023-12-07T00:14:21;96.32;;;28.17;;
19848;SDS011;10085;51.120;6.956;2023-12-07T00:24:24;103.47;;;29.37;;
19848;SDS011;10085;51.120;6.956;2023-12-07T00:34:28;84.32;;;23.13;;
19848;SDS011;10085;51.120;6.956;2023-12-07T00:44:31;103.03;;;29.55;;
19848;SDS011;10085;51.120;6.956;2023-12-07T00:54:35;101.38;;;27.17;;
19848;SDS011;10085;51.120;6.956;2023-12-07T01:04:38;95.30;;;25.85;;
19848;SDS011;10085;51.120;6.956;2023-12-07T01:14:42;92.57;;;25.35;;
19848;SDS011;10085;51.120;6.956;2023-12-07T01:24:45;98.78;;;26.88;;
19848;SDS011;10085;51.120;6.956;2023-12-07T01:34:49;98.53;;;26.08;;
19848;SDS011;10085;51.120;6.956;2023-12-07T01:44:52;104.45;;;26.83;;
19848;SDS011;10085;51.120;6.956;2023-12-07T01:54:57;92.07;;;25.60;;
19848;SDS011;10085;51.120;6.956;2023-12-07T02:05:01;81.00;;;22.00;;
19848;SDS011;10085;51.120;6.956;2023-12-07T02:15:06;101.25;;;24.70;;
19848;SDS011;10085;51.120;6.956;2023-12-07T02:25:13;91.88;;;24.00;;
19848;SDS011;10085;51.120;6.956;2023-12-07T02:35:18;117.88;;;26.52;;
19848;SDS011;10085;51.120;6.956;2023-12-07T02:45:21;116.22;;;27.92;;
19848;SDS011;10085;51.120;6.956;2023-12-07T02:55:25;118.70;;;25.70;;
19848;SDS011;10085;51.120;6.956;2023-12-07T03:05:28;132.93;;;24.52;;
19848;SDS011;10085;51.120;6.956;2023-12-07T03:15:33;107.05;;;22.65;;
19848;SDS011;10085;51.120;6.956;2023-12-07T03:25:35;120.32;;;24.25;;
19848;SDS011;10085;51.120;6.956;2023-12-07T03:35:40;112.13;;;24.20;;
19848;SDS011;10085;51.120;6.956;2023-12-07T03:45:43;119.00;;;24.40;;
19848;SDS011;10085;51.120;6.956;2023-12-07T03:55:47;125.43;;;25.30;;
19848;SDS011;10085;51.120;6.956;2023-12-07T04:05:50;113.00;;;24.30;;
19848;SDS011;10085;51.120;6.956;2023-12-07T04:15:54;107.03;;;24.10;;
19848;SDS011;10085;51.120;6.956;2023-12-07T04:25:57;127.85;;;26.25;;
19848;SDS011;10085;51.120;6.956;2023-12-07T04:36:01;115.28;;;24.70;;
19848;SDS011;10085;51.120;6.956;2023-12-07T04:46:06;106.25;;;23.70;;
19848;SDS011;10085;51.120;6.956;2023-12-07T04:56:10;101.10;;;23.63;;
19848;SDS011;10085;51.120;6.956;2023-12-07T05:06:13;98.40;;;23.38;;
19848;SDS011;10085;51.120;6.956;2023-12-07T05:16:17;105.80;;;23.52;;
19848;SDS011;10085;51.120;6.956;2023-12-07T05:26:20;115.72;;;25.15;;
19848;SDS011;10085;51.120;6.956;2023-12-07T05:36:24;122.60;;;28.40;;
19848;SDS011;10085;51.120;6.956;2023-12-07T05:46:27;130.88;;;26.65;;
19848;SDS011;10085;51.120;6.956;2023-12-07T05:56:31;117.18;;;25.00;;
19848;SDS011;10085;51.120;6.956;2023-12-07T06:06:34;110.53;;;25.35;;
19848;SDS011;10085;51.120;6.956;2023-12-07T06:16:38;102.18;;;24.67;;
19848;SDS011;10085;51.120;6.956;2023-12-07T06:26:41;106.00;;;24.33;;
19848;SDS011;10085;51.120;6.956;2023-12-07T06:36:46;95.68;;;22.73;;
19848;SDS011;10085;51.120;6.956;2023-12-07T06:46:50;106.03;;;24.30;;
19848;SDS011;10085;51.120;6.956;2023-12-07T06:56:54;105.17;;;24.03;;
19848;SDS011;10085;51.120;6.956;2023-12-07T07:06:57;107.07;;;22.60;;
19848;SDS011;10085;51.120;6.956;2023-12-07T07:17:02;89.17;;;20.40;;
19848;SDS011;10085;51.120;6.956;2023-12-07T07:27:05;97.00;;;21.50;;
19848;SDS011;10085;51.120;6.956;2023-12-07T07:37:10;97.13;;;21.83;;
19848;SDS011;10085;51.120;6.956;2023-12-07T07:47:13;91.63;;;20.50;;
19848;SDS011;10085;51.120;6.956;2023-12-07T07:57:19;111.53;;;24.10;;
19848;SDS011;10085;51.120;6.956;2023-12-07T08:07:22;78.30;;;19.90;;
19848;SDS011;10085;51.120;6.956;2023-12-07T08:17:26;70.50;;;18.90;;
19848;SDS011;10085;51.120;6.956;2023-12-07T08:27:29;76.93;;;20.17;;
19848;SDS011;10085;51.120;6.956;2023-12-07T08:37:33;78.07;;;20.07;;
19848;SDS011;10085;51.120;6.956;2023-12-07T08:47:37;68.45;;;16.88;;
19848;SDS011;10085;51.120;6.956;2023-12-07T08:57:44;64.30;;;18.30;;
19848;SDS011;10085;51.120;6.956;2023-12-07T09:07:49;64.80;;;17.37;;
19848;SDS011;10085;51.120;6.956;2023-12-07T09:17:56;62.97;;;17.10;;
19848;SDS011;10085;51.120;6.956;2023-12-07T09:27:59;59.87;;;17.83;;
19848;SDS011;10085;51.120;6.956;2023-12-07T09:38:03;57.03;;;16.17;;
19848;SDS011;10085;51.120;6.956;2023-12-07T09:48:06;53.47;;;16.02;;
19848;SDS011;10085;51.120;6.956;2023-12-07T09:58:11;60.78;;;19.27;;
19848;SDS011;10085;51.120;6.956;2023-12-07T10:08:16;53.58;;;16.02;;
19848;SDS011;10085;51.120;6.956;2023-12-07T10:18:29;60.03;;;16.48;;
19848;SDS011;10085;51.120;6.956;2023-12-07T10:28:33;54.20;;;16.17;;
19848;SDS011;10085;51.120;6.956;2023-12-07T10:38:38;53.40;;;16.63;;
19848;SDS011;10085;51.120;6.956;2023-12-07T10:48:43;53.88;;;15.93;;
19848;SDS011;10085;51.120;6.956;2023-12-07T10:58:48;39.72;;;12.20;;
19848;SDS011;10085;51.120;6.956;2023-12-07T11:08:52;46.70;;;14.75;;
19848;SDS011;10085;51.120;6.956;2023-12-07T11:18:59;39.33;;;13.50;;
19848;SDS011;10085;51.120;6.956;2023-12-07T11:29:02;36.03;;;11.30;;
19848;SDS011;10085;51.120;6.956;2023-12-07T11:39:19;36.38;;;12.60;;
19848;SDS011;10085;51.120;6.956;2023-12-07T11:49:30;26.50;;;10.52;;
19848;SDS011;10085;51.120;6.956;2023-12-07T11:59:38;35.97;;;11.13;;
19848;SDS011;10085;51.120;6.956;2023-12-07T12:09:41;35.70;;;11.50;;
19848;SDS011;10085;51.120;6.956;2023-12-07T12:19:45;30.37;;;11.57;;
19848;SDS011;10085;51.120;6.956;2023-12-07T12:29:52;36.87;;;12.90;;
19848;SDS011;10085;51.120;6.956;2023-12-07T12:39:56;31.63;;;11.87;;
19848;SDS011;10085;51.120;6.956;2023-12-07T12:50:03;24.93;;;9.70;;
19848;SDS011;10085;51.120;6.956;2023-12-07T13:00:08;31.63;;;11.20;;
19848;SDS011;10085;51.120;6.956;2023-12-07T13:10:12;29.13;;;11.90;;
19848;SDS011;10085;51.120;6.956;2023-12-07T13:20:16;27.85;;;10.45;;
19848;SDS011;10085;51.120;6.956;2023-12-07T13:30:20;28.67;;;10.25;;
19848;SDS011;10085;51.120;6.956;2023-12-07T13:40:24;22.42;;;9.07;;
19848;SDS011;10085;51.120;6.956;2023-12-07T13:50:28;20.33;;;9.00;;
19848;SDS011;10085;51.120;6.956;2023-12-07T14:00:32;20.70;;;9.00;;
19848;SDS011;10085;51.120;6.956;2023-12-07T14:10:35;20.98;;;8.52;;
19848;SDS011;10085;51.120;6.956;2023-12-07T14:20:41;18.80;;;8.27;;
19848;SDS011;10085;51.120;6.956;2023-12-07T14:31:04;19.70;;;7.63;;
19848;SDS011;10085;51.120;6.956;2023-12-07T14:41:09;22.63;;;7.65;;
19848;SDS011;10085;51.120;6.956;2023-12-07T14:51:17;15.05;;;7.05;;
19848;SDS011;10085;51.120;6.956;2023-12-07T15:01:23;15.70;;;7.50;;
19848;SDS011;10085;51.120;6.956;2023-12-07T15:11:27;14.50;;;6.28;;
19848;SDS011;10085;51.120;6.956;2023-12-07T15:21:31;27.30;;;12.00;;
19848;SDS011;10085;51.120;6.956;2023-12-07T15:31:36;20.87;;;8.07;;
19848;SDS011;10085;51.120;6.956;2023-12-07T15:41:44;16.23;;;7.60;;
19848;SDS011;10085;51.120;6.956;2023-12-07T15:51:50;17.87;;;7.00;;
19848;SDS011;10085;51.120;6.956;2023-12-07T16:01:59;16.50;;;7.57;;
19848;SDS011;10085;51.120;6.956;2023-12-07T16:12:14;19.58;;;7.32;;
19848;SDS011;10085;51.120;6.956;2023-12-07T16:22:18;15.40;;;6.43;;
19848;SDS011;10085;51.120;6.956;2023-12-07T16:32:21;7.43;;;4.50;;
19848;SDS011;10085;51.120;6.956;2023-12-07T16:42:25;17.80;;;8.57;;
19848;SDS011;10085;51.120;6.956;2023-12-07T16:52:28;12.97;;;6.30;;
19848;SDS011;10085;51.120;6.956;2023-12-07T17:02:32;11.13;;;5.57;;
19848;SDS011;10085;51.120;6.956;2023-12-07T17:12:35;12.93;;;6.30;;
19848;SDS011;10085;51.120;6.956;2023-12-07T17:22:40;8.97;;;4.33;;
19848;SDS011;10085;51.120;6.956;2023-12-07T17:32:43;14.00;;;6.20;;
19848;SDS011;10085;51.120;6.956;2023-12-07T17:42:47;15.35;;;7.00;;
19848;SDS011;10085;51.120;6.956;2023-12-07T17:52:50;11.02;;;5.65;;
19848;SDS011;10085;51.120;6.956;2023-12-07T18:02:54;12.40;;;5.78;;
19848;SDS011;10085;51.120;6.956;2023-12-07T18:12:57;10.70;;;5.50;;
19848;SDS011;10085;51.120;6.956;2023-12-07T18:23:03;14.07;;;6.70;;
19848;SDS011;10085;51.120;6.956;2023-12-07T18:33:06;14.30;;;6.33;;
19848;SDS011;10085;51.120;6.956;2023-12-07T18:43:11;11.20;;;5.00;;
19848;SDS011;10085;51.120;6.956;2023-12-07T18:53:15;11.80;;;6.00;;
19848;SDS011;10085;51.120;6.956;2023-12-07T19:03:19;11.82;;;5.38;;
19848;SDS011;10085;51.120;6.956;2023-12-07T19:13:22;13.75;;;5.97;;
19848;SDS011;10085;51.120;6.956;2023-12-07T19:23:26;10.70;;;5.57;;
19848;SDS011;10085;51.120;6.956;2023-12-07T19:33:30;13.90;;;7.05;;
19848;SDS011;10085;51.120;6.956;2023-12-07T19:43:36;15.93;;;7.20;;
19848;SDS011;10085;51.120;6.956;2023-12-07T19:53:39;14.47;;;6.67;;
19848;SDS011;10085;51.120;6.956;2023-12-07T20:03:44;17.80;;;6.33;;
19848;SDS011;10085;51.120;6.956;2023-12-07T20:13:46;14.80;;;6.57;;
19848;SDS011;10085;51.120;6.956;2023-12-07T20:23:52;14.03;;;6.73;;
19848;SDS011;10085;51.120;6.956;2023-12-07T20:33:55;15.80;;;7.55;;
19848;SDS011;10085;51.120;6.956;2023-12-07T20:44:00;9.70;;;4.87;;
19848;SDS011;10085;51.120;6.956;2023-12-07T20:54:04;13.00;;;5.30;;
19848;SDS011;10085;51.120;6.956;2023-12-07T21:04:09;13.97;;;6.67;;
19848;SDS011;10085;51.120;6.956;2023-12-07T21:14:12;13.43;;;6.30;;
19848;SDS011;10085;51.120;6.956;2023-12-07T21:24:16;12.33;;;5.47;;
19848;SDS011;10085;51.120;6.956;2023-12-07T21:34:19;12.73;;;5.75;;
19848;SDS011;10085;51.120;6.956;2023-12-07T21:44:24;12.63;;;5.50;;
19848;SDS011;10085;51.120;6.956;2023-12-07T22:09:36;8.93;;;3.30;;
19848;SDS011;10085;51.120;6.956;2023-12-07T22:19:40;11.70;;;5.65;;
19848;SDS011;10085;51.120;6.956;2023-12-07T22:29:44;10.87;;;5.23;;
19848;SDS011;10085;51.120;6.956;2023-12-07T22:39:47;9.75;;;4.85;;
19848;SDS011;10085;51.120;6.956;2023-12-07T22:49:51;10.52;;;5.22;;
19848;SDS011;10085;51.120;6.956;2023-12-07T22:59:54;8.82;;;4.63;;
19848;SDS011;10085;51.120;6.956;2023-12-07T23:09:58;13.87;;;4.87;;
19848;SDS011;10085;51.120;6.956;2023-12-07T23:20:01;8.97;;;4.60;;
19848;SDS011;10085;51.120;6.956;2023-12-07T23:30:07;8.37;;;4.17;;
19848;SDS011;10085;51.120;6.956;2023-12-07T23:40:11;11.13;;;4.93;;
19848;SDS011;10085;51.120;6.956;2023-12-07T23:50:16;12.47;;;5.30;;
